Time;durP1;ratioP1;P1;durP2;ratioP2;P2;SDS_P1;SDS_P2;PMS_P1;PMS_P2;Temp;Humidity;BMP_temperature;BMP_pressure;BME280_temperature;BME280_humidity;BME280_pressure;Samples;Min_cycle;Max_cycle;Signal;HPM_P1;HPM_P2
2022/10/14 00:01:16;;;;;;;16.13;9.70;;;12.30;99.90;;;;;;4861339;29;20210;-87
2022/10/14 00:03:42;;;;;;;15.90;9.90;;;12.40;99.90;;;;;;4877284;29;20264;-87
2022/10/14 00:06:11;;;;;;;11.07;9.83;;;12.40;99.90;;;;;;4861512;29;20214;-87
2022/10/14 00:08:40;;;;;;;14.17;9.40;;;12.40;99.90;;;;;;4860815;29;20654;-88
2022/10/14 00:11:17;;;;;;;11.80;8.90;;;12.40;99.90;;;;;;4862541;29;20215;-87
2022/10/14 00:13:44;;;;;;;12.63;9.33;;;12.50;99.90;;;;;;4860863;29;20219;-87
2022/10/14 00:16:22;;;;;;;12.87;9.07;;;12.50;99.90;;;;;;4876732;29;20194;-87
2022/10/14 00:18:48;;;;;;;11.33;8.60;;;12.50;99.90;;;;;;4861332;29;20216;-87
2022/10/14 00:21:30;;;;;;;10.23;8.50;;;12.50;99.90;;;;;;4861152;29;20301;-87
2022/10/14 00:23:57;;;;;;;13.83;8.37;;;12.50;99.90;;;;;;4861211;29;20216;-87
2022/10/14 00:26:29;;;;;;;10.43;7.80;;;12.50;99.90;;;;;;4861328;29;20215;-87
2022/10/14 00:28:56;;;;;;;11.80;8.63;;;12.50;99.90;;;;;;4861008;29;20192;-87
2022/10/14 00:31:25;;;;;;;11.97;8.33;;;12.40;99.90;;;;;;4860994;29;20216;-87
2022/10/14 00:33:51;;;;;;;11.53;8.67;;;12.40;99.90;;;;;;4861312;29;20219;-87
2022/10/14 00:36:19;;;;;;;9.60;8.10;;;12.30;99.90;;;;;;4861017;29;20213;-87
2022/10/14 00:38:46;;;;;;;12.50;8.77;;;12.30;99.90;;;;;;4860784;29;20274;-87
2022/10/14 00:41:36;;;;;;;13.90;8.53;;;12.30;99.90;;;;;;4876338;29;20191;-87
2022/10/14 00:44:14;;;;;;;11.80;8.40;;;12.30;99.90;;;;;;4845229;29;20223;-87
2022/10/14 00:46:43;;;;;;;16.87;8.60;;;12.30;99.90;;;;;;4860542;29;20220;-87
2022/10/14 00:49:12;;;;;;;13.30;8.97;;;12.20;99.90;;;;;;4860914;29;20185;-87
2022/10/14 00:51:41;;;;;;;12.57;9.00;;;12.20;99.90;;;;;;4860710;29;20257;-87
2022/10/14 00:54:08;;;;;;;13.23;9.27;;;12.20;99.90;;;;;;4860482;29;20211;-87
2022/10/14 00:56:35;;;;;;;13.80;9.20;;;12.30;99.90;;;;;;4860480;29;20282;-87
2022/10/14 00:59:05;;;;;;;12.23;8.50;;;12.30;99.90;;;;;;4875894;29;20183;-87
2022/10/14 01:01:31;;;;;;;11.57;8.73;;;12.30;99.90;;;;;;4860452;29;20205;-87
2022/10/14 01:03:57;;;;;;;12.50;8.80;;;12.40;99.90;;;;;;4859694;29;20227;-87
2022/10/14 01:06:38;;;;;;;11.17;8.93;;;12.40;99.90;;;;;;4860120;29;20233;-87
2022/10/14 01:09:26;;;;;;;13.33;8.67;;;12.30;99.90;;;;;;4860247;29;20216;-87
2022/10/14 01:12:03;;;;;;;15.43;8.57;;;12.30;99.90;;;;;;4860154;29;20209;-87
2022/10/14 01:15:26;;;;;;;12.27;9.43;;;12.40;99.90;;;;;;4860397;29;20207;-87
2022/10/14 01:18:13;;;;;;;11.93;9.43;;;12.40;99.90;;;;;;4858938;29;20244;-87
2022/10/14 01:21:01;;;;;;;10.73;9.23;;;12.40;99.90;;;;;;4828864;29;20181;-87
2022/10/14 01:23:52;;;;;;;15.43;9.23;;;12.50;99.90;;;;;;4840064;29;20227;-87
2022/10/14 01:26:18;;;;;;;10.60;8.63;;;12.50;99.90;;;;;;4844778;29;20236;-87
2022/10/14 01:28:56;;;;;;;10.50;8.33;;;12.50;99.90;;;;;;4859807;29;20196;-87
2022/10/14 01:31:28;;;;;;;11.27;9.13;;;12.50;99.90;;;;;;4844553;29;20219;-87
2022/10/14 01:33:58;;;;;;;11.73;8.13;;;12.50;99.90;;;;;;4859953;29;20208;-87
2022/10/14 01:36:56;;;;;;;10.60;8.23;;;12.60;99.90;;;;;;4860094;29;20184;-87
2022/10/14 01:39:26;;;;;;;13.77;9.70;;;12.60;99.90;;;;;;4825646;29;20197;-87
2022/10/14 01:41:59;;;;;;;13.00;9.37;;;12.60;99.90;;;;;;4856850;29;20214;-86
2022/10/14 01:44:28;;;;;;;14.90;10.07;;;12.60;99.90;;;;;;4859488;29;20176;-87
2022/10/14 01:46:55;;;;;;;13.40;9.23;;;12.60;99.90;;;;;;4859403;29;20193;-87
2022/10/14 01:49:35;;;;;;;14.67;8.87;;;12.60;99.90;;;;;;4859536;29;20272;-86
2022/10/14 01:52:21;;;;;;;16.27;9.87;;;12.60;99.90;;;;;;4859486;29;20228;-87
2022/10/14 01:54:53;;;;;;;14.17;9.73;;;12.60;99.90;;;;;;4859539;29;20200;-86
2022/10/14 01:57:27;;;;;;;11.03;9.50;;;12.60;99.90;;;;;;4874917;29;20172;-87
2022/10/14 01:59:55;;;;;;;13.53;9.53;;;12.60;99.90;;;;;;4859694;29;20178;-87
2022/10/14 02:02:23;;;;;;;12.60;9.20;;;12.60;99.90;;;;;;4859605;29;20207;-87
2022/10/14 02:04:49;;;;;;;12.23;9.40;;;12.60;99.90;;;;;;4859320;29;20203;-87
2022/10/14 02:07:50;;;;;;;11.40;9.47;;;12.60;99.90;;;;;;4859186;29;20196;-87
2022/10/14 02:10:39;;;;;;;15.83;9.87;;;12.60;99.90;;;;;;4859369;29;20190;-87
2022/10/14 02:13:23;;;;;;;9.67;8.67;;;12.50;99.90;;;;;;4859153;29;20307;-87
2022/10/14 02:15:49;;;;;;;12.50;9.43;;;12.50;99.90;;;;;;4859168;29;20184;-87
2022/10/14 02:18:28;;;;;;;13.87;9.03;;;12.50;99.90;;;;;;4858421;29;20212;-87
2022/10/14 02:21:01;;;;;;;11.93;8.57;;;12.50;99.90;;;;;;4859048;29;20194;-87
2022/10/14 02:23:40;;;;;;;11.80;9.17;;;12.50;99.90;;;;;;4859255;29;20212;-87
2022/10/14 02:26:08;;;;;;;13.23;9.60;;;12.50;99.90;;;;;;4859185;29;20254;-87
2022/10/14 02:28:35;;;;;;;10.80;9.20;;;12.50;99.90;;;;;;4859073;29;20417;-87
2022/10/14 02:31:09;;;;;;;11.60;8.60;;;12.50;99.90;;;;;;4858232;29;20204;-87
2022/10/14 02:33:43;;;;;;;14.33;8.80;;;12.60;99.90;;;;;;4857765;29;20220;-87
2022/10/14 02:36:12;;;;;;;11.90;9.53;;;12.50;99.90;;;;;;4858677;29;20181;-87
2022/10/14 02:38:39;;;;;;;13.23;9.47;;;12.50;99.90;;;;;;4858835;29;20195;-87
2022/10/14 02:41:13;;;;;;;12.20;9.23;;;12.50;99.90;;;;;;4859335;29;20188;-87
2022/10/14 02:43:39;;;;;;;13.10;8.80;;;12.50;99.90;;;;;;4858951;29;20188;-87
2022/10/14 02:46:05;;;;;;;15.53;9.47;;;12.50;99.90;;;;;;4859150;29;20188;-87
2022/10/14 02:48:32;;;;;;;13.60;8.90;;;12.50;99.90;;;;;;4858596;29;20211;-87
2022/10/14 02:50:58;;;;;;;11.50;9.03;;;12.50;99.90;;;;;;4874421;29;20180;-87
2022/10/14 02:53:24;;;;;;;9.63;7.60;;;12.50;99.90;;;;;;4859232;29;20219;-87
2022/10/14 02:55:50;;;;;;;11.50;8.37;;;12.50;99.90;;;;;;4858959;29;20211;-87
2022/10/14 02:58:15;;;;;;;14.50;9.93;;;12.50;99.90;;;;;;4858668;29;20192;-87
2022/10/14 03:00:52;;;;;;;11.03;9.17;;;12.50;99.90;;;;;;4874480;29;20177;-87
2022/10/14 03:03:19;;;;;;;13.63;9.23;;;12.50;99.90;;;;;;4859026;29;20241;-87
2022/10/14 03:05:46;;;;;;;16.17;10.20;;;12.50;99.90;;;;;;4859164;29;20252;-87
2022/10/14 03:08:13;;;;;;;13.37;10.13;;;12.50;99.90;;;;;;4858980;29;20299;-87
2022/10/14 03:10:39;;;;;;;11.40;9.10;;;12.50;99.90;;;;;;4859287;29;20305;-86
2022/10/14 03:13:09;;;;;;;11.50;8.73;;;12.40;99.90;;;;;;4858817;29;20216;-87
2022/10/14 03:15:40;;;;;;;13.87;9.37;;;12.40;99.90;;;;;;4858801;29;20182;-87
2022/10/14 03:18:09;;;;;;;11.97;9.43;;;12.40;99.90;;;;;;4874236;29;20181;-87
2022/10/14 03:20:43;;;;;;;10.97;8.93;;;12.40;99.90;;;;;;4858795;29;20242;-87
2022/10/14 03:23:10;;;;;;;11.10;9.00;;;12.40;99.90;;;;;;4858684;29;20209;-87
2022/10/14 03:25:37;;;;;;;11.60;9.10;;;12.40;99.90;;;;;;4858553;29;20202;-87
2022/10/14 03:28:07;;;;;;;11.70;8.83;;;12.40;99.90;;;;;;4858627;29;20216;-87
2022/10/14 03:30:49;;;;;;;10.70;8.90;;;12.40;99.90;;;;;;4862210;29;20211;-87
2022/10/14 03:33:27;;;;;;;10.67;8.93;;;12.40;99.90;;;;;;4861969;29;20290;-87
2022/10/14 03:36:04;;;;;;;13.07;9.33;;;12.30;99.90;;;;;;4848206;29;20183;-87
2022/10/14 03:38:51;;;;;;;12.07;9.20;;;12.30;99.90;;;;;;4861997;29;20176;-87
2022/10/14 03:41:38;;;;;;;10.27;8.80;;;12.30;99.90;;;;;;4859257;29;20296;-88
2022/10/14 03:44:07;;;;;;;12.47;9.50;;;12.30;99.90;;;;;;4862029;29;20196;-88
2022/10/14 03:46:49;;;;;;;10.70;8.77;;;12.30;99.90;;;;;;4861847;29;20279;-88
2022/10/14 03:49:18;;;;;;;12.57;9.97;;;12.30;99.90;;;;;;4862279;29;20193;-88
2022/10/14 03:52:21;;;;;;;11.87;9.10;;;12.30;99.90;;;;;;4862452;29;20211;-88
2022/10/14 03:54:58;;;;;;;13.63;9.43;;;12.30;99.90;;;;;;4861194;29;20219;-88
2022/10/14 03:57:25;;;;;;;12.20;9.77;;;12.20;99.90;;;;;;4859995;29;20188;-88
2022/10/14 03:59:55;;;;;;;12.13;8.80;;;12.20;99.90;;;;;;4861581;29;20209;-87
2022/10/14 04:02:26;;;;;;;13.33;8.83;;;12.20;99.90;;;;;;4858032;29;20212;-87
2022/10/14 04:04:58;;;;;;;12.03;9.07;;;12.20;99.90;;;;;;4857534;29;20185;-87
2022/10/14 04:07:25;;;;;;;12.23;9.10;;;12.20;99.90;;;;;;4848598;29;20199;-87
2022/10/14 04:09:56;;;;;;;12.43;9.07;;;12.10;99.90;;;;;;4861440;29;20203;-88
2022/10/14 04:12:22;;;;;;;12.20;8.67;;;12.10;99.90;;;;;;4861159;29;20239;-87
2022/10/14 04:14:57;;;;;;;10.63;8.67;;;12.10;99.90;;;;;;4861418;29;20214;-87
2022/10/14 04:17:25;;;;;;;9.40;8.23;;;12.10;99.90;;;;;;4859847;29;20196;-88
2022/10/14 04:19:52;;;;;;;17.17;10.70;;;12.10;99.90;;;;;;4861418;29;20176;-88
2022/10/14 04:22:18;;;;;;;17.30;11.07;;;12.10;99.90;;;;;;4845864;29;20214;-88
2022/10/14 04:24:49;;;;;;;13.80;8.90;;;12.00;99.90;;;;;;4846554;29;20206;-88
2022/10/14 04:27:17;;;;;;;9.47;8.13;;;12.00;99.90;;;;;;4860990;29;20274;-87
2022/10/14 04:29:53;;;;;;;13.13;9.00;;;12.00;99.90;;;;;;4861149;29;20218;-87
2022/10/14 04:32:26;;;;;;;10.00;7.83;;;12.00;99.90;;;;;;4860440;29;20223;-87
2022/10/14 04:34:53;;;;;;;11.90;9.17;;;12.00;99.90;;;;;;4861306;29;20223;-87
2022/10/14 04:37:22;;;;;;;12.67;8.83;;;12.00;99.90;;;;;;4861135;29;20171;-87
2022/10/14 04:40:09;;;;;;;12.43;9.33;;;12.00;99.90;;;;;;4879162;29;20268;-87
2022/10/14 04:42:41;;;;;;;11.57;8.80;;;12.00;99.90;;;;;;4867060;29;20211;-88
2022/10/14 04:45:18;;;;;;;17.03;9.40;;;12.00;99.90;;;;;;4860917;29;20183;-87
2022/10/14 04:48:28;;;;;;;13.90;8.57;;;12.00;99.90;;;;;;4860792;29;20187;-89
2022/10/14 04:50:55;;;;;;;15.90;9.80;;;12.00;99.90;;;;;;4860767;29;20179;-88
2022/10/14 04:53:41;;;;;;;14.10;8.97;;;11.80;99.90;;;;;;4860825;29;20313;-88
2022/10/14 04:56:26;;;;;;;12.87;8.77;;;11.80;99.90;;;;;;4874288;29;20233;-88
2022/10/14 04:58:58;;;;;;;10.67;9.30;;;11.80;99.90;;;;;;4860572;29;20180;-88
2022/10/14 05:01:38;;;;;;;11.50;9.17;;;11.80;99.90;;;;;;4860279;29;20215;-88
2022/10/14 05:04:04;;;;;;;11.20;9.27;;;11.90;99.90;;;;;;4860935;29;20199;-89
2022/10/14 05:06:37;;;;;;;12.87;8.53;;;12.00;99.90;;;;;;4860721;29;20187;-88
2022/10/14 05:09:04;;;;;;;12.33;9.10;;;12.00;99.90;;;;;;4875945;29;20191;-88
2022/10/14 05:11:31;;;;;;;9.90;8.20;;;12.00;99.90;;;;;;4860157;29;20229;-88
2022/10/14 05:13:59;;;;;;;11.33;8.47;;;12.00;99.90;;;;;;4860328;29;20210;-88
2022/10/14 05:16:31;;;;;;;14.40;9.40;;;12.00;99.90;;;;;;4860353;29;20185;-88
2022/10/14 05:18:57;;;;;;;11.53;8.50;;;12.00;99.90;;;;;;4860174;29;20193;-89
2022/10/14 05:21:29;;;;;;;15.17;8.83;;;12.00;99.90;;;;;;4860042;29;20211;-90
2022/10/14 05:24:05;;;;;;;11.33;8.67;;;12.00;99.90;;;;;;4860247;29;20185;-89
2022/10/14 05:26:34;;;;;;;11.53;8.03;;;12.00;99.90;;;;;;4860191;29;20196;-88
2022/10/14 05:29:04;;;;;;;12.57;9.17;;;11.90;99.90;;;;;;4860106;29;20199;-88
2022/10/14 05:31:31;;;;;;;14.97;8.70;;;11.90;99.90;;;;;;4860280;29;20221;-88
2022/10/14 05:34:06;;;;;;;12.23;9.20;;;11.90;99.90;;;;;;4861028;29;20304;-85
2022/10/14 05:36:32;;;;;;;14.23;9.90;;;11.90;99.90;;;;;;4861537;29;20279;-82
2022/10/14 05:39:00;;;;;;;12.03;10.10;;;11.90;99.90;;;;;;4861014;29;20184;-82
2022/10/14 05:41:32;;;;;;;11.13;8.83;;;11.90;99.90;;;;;;4861334;29;20216;-89
2022/10/14 05:43:58;;;;;;;13.97;10.17;;;11.90;99.90;;;;;;4860111;29;20198;-88
2022/10/14 05:46:24;;;;;;;11.10;9.67;;;11.90;99.90;;;;;;4858167;29;20226;-88
2022/10/14 05:48:54;;;;;;;10.23;9.13;;;11.90;99.90;;;;;;4859502;29;20189;-88
2022/10/14 05:51:21;;;;;;;11.37;9.50;;;11.90;99.90;;;;;;4860900;29;20211;-88
2022/10/14 05:53:57;;;;;;;10.77;9.50;;;11.90;99.90;;;;;;4862000;29;20207;-88
2022/10/14 05:56:28;;;;;;;10.10;8.53;;;11.90;99.90;;;;;;4859329;29;20220;-89
2022/10/14 05:58:55;;;;;;;12.77;9.93;;;12.00;99.90;;;;;;4844099;29;20219;-89
2022/10/14 06:01:21;;;;;;;11.80;10.30;;;12.00;99.90;;;;;;4859773;29;20241;-91
2022/10/14 06:03:51;;;;;;;11.17;9.43;;;12.00;99.90;;;;;;4844665;29;20188;-88
2022/10/14 06:06:18;;;;;;;10.97;9.77;;;12.00;99.90;;;;;;4859914;29;20192;-89
2022/10/14 06:08:45;;;;;;;10.77;9.60;;;12.00;99.90;;;;;;4859629;29;20192;-89
2022/10/14 06:11:12;;;;;;;12.03;9.63;;;12.00;99.90;;;;;;4874817;29;20259;-88
2022/10/14 06:13:39;;;;;;;11.43;10.10;;;12.00;99.90;;;;;;4874809;29;20211;-88
2022/10/14 06:16:08;;;;;;;11.60;10.27;;;12.00;99.90;;;;;;4854879;29;20185;-88
2022/10/14 06:18:36;;;;;;;12.73;10.30;;;12.10;99.90;;;;;;4855692;29;20276;-88
2022/10/14 06:21:04;;;;;;;11.33;10.03;;;12.10;99.90;;;;;;4841148;29;20180;-88
2022/10/14 06:23:31;;;;;;;11.70;9.70;;;12.10;99.90;;;;;;4840636;29;20228;-88
2022/10/14 06:25:57;;;;;;;12.50;9.73;;;12.10;99.90;;;;;;4825729;29;20280;-89
2022/10/14 06:28:22;;;;;;;13.03;9.67;;;12.10;99.90;;;;;;4840971;29;20290;-89
2022/10/14 06:30:53;;;;;;;12.40;10.00;;;12.10;99.90;;;;;;4840686;29;20239;-89
2022/10/14 06:33:20;;;;;;;12.10;10.10;;;12.20;99.90;;;;;;4840998;29;20217;-89
2022/10/14 06:36:22;;;;;;;12.37;9.60;;;12.20;99.90;;;;;;4840440;29;20267;-89
2022/10/14 06:38:48;;;;;;;13.43;9.57;;;12.20;99.90;;;;;;4840810;29;20181;-89
2022/10/14 06:41:14;;;;;;;11.37;9.07;;;12.30;99.90;;;;;;4840585;29;20306;-89
2022/10/14 06:43:40;;;;;;;11.30;8.57;;;12.30;99.90;;;;;;4861959;29;20207;-89
2022/10/14 06:46:07;;;;;;;10.97;9.10;;;12.30;99.90;;;;;;4850867;29;20282;-90
2022/10/14 06:48:33;;;;;;;14.20;9.53;;;12.40;99.90;;;;;;4864963;29;20287;-89
2022/10/14 06:51:00;;;;;;;11.27;8.83;;;12.40;99.90;;;;;;4858941;29;20210;-90
2022/10/14 06:53:28;;;;;;;11.57;8.43;;;12.50;99.90;;;;;;4859018;29;20215;-91
2022/10/14 06:56:03;;;;;;;10.63;8.53;;;12.50;99.90;;;;;;4857797;29;20277;-81
2022/10/14 06:58:31;;;;;;;10.30;8.27;;;12.50;99.90;;;;;;4858181;29;20178;-88
2022/10/14 07:01:05;;;;;;;12.37;8.37;;;12.50;99.90;;;;;;4859000;29;20176;-89
2022/10/14 07:03:35;;;;;;;13.03;8.70;;;12.60;99.90;;;;;;4859584;29;20196;-89
2022/10/14 07:06:03;;;;;;;9.10;8.03;;;12.60;99.90;;;;;;4862574;29;20193;-88
2022/10/14 07:08:49;;;;;;;13.63;9.17;;;12.70;99.90;;;;;;4861944;29;20203;-89
2022/10/14 07:11:14;;;;;;;14.60;9.23;;;12.70;99.90;;;;;;4862625;29;20208;-88
2022/10/14 07:13:40;;;;;;;12.77;8.60;;;12.80;99.90;;;;;;4862448;29;20218;-89
2022/10/14 07:16:06;;;;;;;11.33;8.63;;;12.90;99.90;;;;;;4862445;29;20189;-89
2022/10/14 07:18:32;;;;;;;12.73;8.53;;;13.00;99.90;;;;;;4862290;29;20192;-89
2022/10/14 07:21:03;;;;;;;12.23;8.00;;;13.10;99.90;;;;;;4862282;29;20188;-89
2022/10/14 07:23:29;;;;;;;12.67;8.07;;;13.10;99.90;;;;;;4862566;29;20188;-88
2022/10/14 07:25:56;;;;;;;9.70;8.50;;;13.20;99.90;;;;;;4862212;29;20416;-89
2022/10/14 07:28:23;;;;;;;10.57;8.37;;;13.30;99.90;;;;;;4862056;29;20247;-89
2022/10/14 07:31:07;;;;;;;10.13;8.47;;;13.30;99.90;;;;;;4862593;29;20207;-88
2022/10/14 07:33:37;;;;;;;13.10;9.23;;;13.40;99.90;;;;;;4862280;29;20230;-88
2022/10/14 07:36:09;;;;;;;10.63;9.07;;;13.40;99.90;;;;;;4862848;29;20188;-89
2022/10/14 07:38:36;;;;;;;10.87;8.30;;;13.40;99.90;;;;;;4879726;29;20212;-88
2022/10/14 07:41:06;;;;;;;10.90;8.30;;;13.40;99.90;;;;;;4830436;29;20196;-89
2022/10/14 07:43:33;;;;;;;13.10;8.30;;;13.50;99.90;;;;;;4830478;29;20205;-88
2022/10/14 07:46:02;;;;;;;10.13;7.97;;;13.50;99.90;;;;;;4861433;29;20279;-89
2022/10/14 07:48:29;;;;;;;9.97;8.23;;;13.50;99.90;;;;;;4865321;29;20235;-88
2022/10/14 07:50:55;;;;;;;12.63;7.93;;;13.50;99.90;;;;;;4864929;29;20311;-89
2022/10/14 07:53:23;;;;;;;8.07;7.27;;;13.60;99.90;;;;;;4864962;29;20211;-88
2022/10/14 07:55:52;;;;;;;11.67;7.53;;;13.60;99.90;;;;;;4864804;29;20295;-89
2022/10/14 07:58:24;;;;;;;10.83;7.80;;;13.60;99.90;;;;;;4879850;29;20176;-88
2022/10/14 08:00:50;;;;;;;9.90;8.07;;;13.70;99.90;;;;;;4864092;29;20216;-89
2022/10/14 08:03:17;;;;;;;11.80;7.70;;;13.70;99.90;;;;;;4879890;29;20235;-88
2022/10/14 08:05:43;;;;;;;11.07;7.97;;;13.80;99.90;;;;;;4880225;29;20188;-88
2022/10/14 08:08:11;;;;;;;9.70;7.40;;;13.80;99.90;;;;;;4861378;29;20196;-88
2022/10/14 08:10:37;;;;;;;11.90;8.07;;;13.90;99.90;;;;;;4861505;29;20208;-89
2022/10/14 08:13:03;;;;;;;9.83;7.40;;;13.90;99.90;;;;;;4861349;29;20258;-89
2022/10/14 08:15:39;;;;;;;9.93;7.10;;;13.90;99.90;;;;;;4859501;29;20195;-88
2022/10/14 08:18:06;;;;;;;9.07;7.47;;;13.90;99.90;;;;;;4861446;29;20182;-89
2022/10/14 08:20:33;;;;;;;9.27;7.07;;;14.00;99.90;;;;;;4861368;29;20181;-89
2022/10/14 08:22:59;;;;;;;8.63;6.63;;;14.00;99.90;;;;;;4861173;29;20209;-89
2022/10/14 08:25:26;;;;;;;12.37;7.63;;;14.10;99.90;;;;;;4861167;29;20185;-89
2022/10/14 08:27:53;;;;;;;9.27;7.23;;;14.20;99.90;;;;;;4861365;29;20181;-89
2022/10/14 08:30:19;;;;;;;8.77;6.60;;;14.30;99.90;;;;;;4861201;29;20212;-90
2022/10/14 08:32:48;;;;;;;10.10;7.50;;;14.30;99.90;;;;;;4879256;29;20307;-89
2022/10/14 08:35:14;;;;;;;7.80;6.67;;;14.40;99.90;;;;;;4864084;29;20247;-89
2022/10/14 08:37:40;;;;;;;11.17;7.60;;;14.50;99.90;;;;;;4863806;29;20339;-89
2022/10/14 08:40:07;;;;;;;11.10;7.13;;;14.60;99.90;;;;;;4846124;29;20224;-89
2022/10/14 08:42:45;;;;;;;7.33;6.30;;;14.60;99.90;;;;;;4861122;29;20219;-89
2022/10/14 08:45:30;;;;;;;6.10;5.50;;;14.70;99.90;;;;;;4860882;29;20268;-89
2022/10/14 08:47:58;;;;;;;8.87;6.00;;;14.80;99.90;;;;;;4860713;29;20188;-89
2022/10/14 08:51:20;;;;;;;6.20;5.37;;;14.90;99.90;;;;;;4860553;29;20199;-89
2022/10/14 08:54:10;;;;;;;7.40;5.43;;;15.00;99.90;;;;;;4843887;29;20380;-89
2022/10/14 08:56:36;;;;;;;7.37;5.63;;;15.10;99.90;;;;;;4860655;29;20199;-89
2022/10/14 08:59:14;;;;;;;8.93;5.87;;;15.20;99.90;;;;;;4860385;29;20188;-89
2022/10/14 09:02:13;;;;;;;5.43;4.90;;;15.20;99.90;;;;;;4845376;29;20718;-89
2022/10/14 09:04:39;;;;;;;6.87;4.50;;;15.30;99.90;;;;;;4844429;29;20196;-89
2022/10/14 09:07:05;;;;;;;8.30;5.00;;;15.30;99.90;;;;;;4844902;29;20211;-89
2022/10/14 09:09:44;;;;;;;7.27;5.00;;;15.30;99.90;;;;;;4860769;29;20180;-89
2022/10/14 09:12:24;;;;;;;8.37;5.20;;;15.40;99.90;;;;;;4860489;29;20211;-89
2022/10/14 09:15:10;;;;;;;6.07;4.70;;;15.50;99.90;;;;;;4845500;29;20217;-89
2022/10/14 09:17:49;;;;;;;6.60;4.20;;;15.60;99.90;;;;;;4841225;29;20674;-89
2022/10/14 09:20:20;;;;;;;9.30;5.37;;;15.70;99.90;;;;;;4860705;29;20252;-89
2022/10/14 09:23:16;;;;;;;5.60;4.53;;;15.70;99.90;;;;;;4845128;29;20346;-89
2022/10/14 09:26:00;;;;;;;5.43;4.60;;;15.80;99.90;;;;;;4843770;29;20196;-89
2022/10/14 09:28:48;;;;;;;9.90;5.80;;;15.80;99.90;;;;;;4844500;29;20199;-89
2022/10/14 09:31:16;;;;;;;5.70;4.80;;;15.90;99.90;;;;;;4860104;29;20213;-89
2022/10/14 09:33:44;;;;;;;6.80;4.67;;;15.90;99.90;;;;;;4844867;29;20216;-89
2022/10/14 09:36:20;;;;;;;8.63;4.60;;;16.00;99.90;;;;;;4844813;29;20177;-89
2022/10/14 09:38:52;;;;;;;8.10;4.80;;;16.00;99.90;;;;;;4844794;29;20191;-89
2022/10/14 09:41:27;;;;;;;5.90;4.50;;;16.10;99.90;;;;;;4844879;29;20204;-89
2022/10/14 09:44:35;;;;;;;5.30;4.17;;;16.20;99.90;;;;;;4859663;29;20240;-89
2022/10/14 09:47:03;;;;;;;6.53;4.60;;;16.40;99.90;;;;;;4875180;29;20233;-89
2022/10/14 09:49:45;;;;;;;9.77;7.20;;;16.40;99.90;;;;;;4859881;29;20189;-89
2022/10/14 09:52:24;;;;;;;5.33;4.83;;;16.40;99.90;;;;;;4860449;29;20215;-89
2022/10/14 09:54:59;;;;;;;6.47;4.70;;;16.50;99.90;;;;;;4874994;29;20215;-89
2022/10/14 09:57:26;;;;;;;7.33;4.77;;;16.50;99.90;;;;;;4844700;29;20179;-89
2022/10/14 10:00:05;;;;;;;5.60;4.45;;;16.50;99.90;;;;;;4859741;29;20232;-89
2022/10/14 10:02:43;;;;;;;8.47;4.97;;;16.50;99.90;;;;;;4859941;29;20204;-89
2022/10/14 10:05:27;;;;;;;8.18;4.28;;;16.50;99.90;;;;;;4859940;29;20211;-88
2022/10/14 10:08:00;;;;;;;6.45;4.63;;;16.50;99.90;;;;;;4845180;29;20205;-89
2022/10/14 10:10:30;;;;;;;5.53;4.07;;;16.50;99.90;;;;;;4860194;29;20221;-89
2022/10/14 10:12:57;;;;;;;5.73;4.20;;;16.50;99.90;;;;;;4859563;29;20310;-89
2022/10/14 10:15:24;;;;;;;5.33;4.07;;;16.50;99.90;;;;;;4861334;29;20709;-89
2022/10/14 10:17:59;;;;;;;6.47;4.50;;;16.50;99.90;;;;;;4872247;29;20179;-89
2022/10/14 10:20:32;;;;;;;5.20;4.63;;;16.50;99.90;;;;;;4869477;29;20228;-88
2022/10/14 10:23:24;;;;;;;6.82;4.43;;;16.50;99.90;;;;;;4859661;29;20283;-87
2022/10/14 10:26:24;;;;;;;6.72;4.30;;;16.50;99.90;;;;;;4859662;29;20288;-87
2022/10/14 10:28:54;;;;;;;8.00;5.30;;;16.60;99.90;;;;;;4843848;29;20200;-85
2022/10/14 10:31:32;;;;;;;8.20;4.85;;;16.50;99.90;;;;;;4859534;29;20276;-87
2022/10/14 10:34:30;;;;;;;4.82;4.05;;;16.50;99.90;;;;;;4859463;29;20307;-87
2022/10/14 10:37:09;;;;;;;7.75;4.80;;;16.50;99.90;;;;;;4859195;29;20187;-87
2022/10/14 10:39:52;;;;;;;5.53;4.47;;;16.50;99.90;;;;;;4859022;29;20180;-87
2022/10/14 10:43:10;;;;;;;5.18;3.17;;;16.50;99.90;;;;;;4859078;29;20236;-87
2022/10/14 10:46:13;;;;;;;6.88;4.18;;;16.40;99.90;;;;;;4842182;29;20192;-87
2022/10/14 10:49:09;;;;;;;8.13;4.05;;;16.50;99.90;;;;;;4871896;29;20179;-87
2022/10/14 10:51:37;;;;;;;5.15;2.97;;;16.40;99.90;;;;;;4844369;29;20215;-87
2022/10/14 10:54:36;;;;;;;4.55;2.42;;;16.40;99.90;;;;;;4858593;29;20344;-86
2022/10/14 10:57:31;;;;;;;3.23;2.67;;;16.40;99.90;;;;;;4855946;29;20177;-87
2022/10/14 11:00:13;;;;;;;3.37;2.20;;;16.40;99.90;;;;;;4840825;29;20193;-87
2022/10/14 11:03:09;;;;;;;3.60;2.50;;;16.40;99.90;;;;;;4846582;29;20236;-87
2022/10/14 11:05:42;;;;;;;4.30;2.73;;;16.30;99.90;;;;;;4859451;29;20191;-87
2022/10/14 11:14:39;;;;;;;3.17;2.67;;;16.50;99.90;;;;;;4858594;29;20236;-87
2022/10/14 11:17:33;;;;;;;7.63;3.77;;;16.60;99.90;;;;;;4858445;29;20197;-87
2022/10/14 11:20:18;;;;;;;5.57;3.00;;;16.70;99.90;;;;;;4859149;29;20181;-85
2022/10/14 11:23:05;;;;;;;3.92;2.83;;;16.90;99.90;;;;;;4861981;29;20442;-85
2022/10/14 11:26:01;;;;;;;3.30;2.50;;;17.00;99.90;;;;;;4858793;29;20220;-81
2022/10/14 11:28:58;;;;;;;3.00;2.30;;;17.10;99.90;;;;;;4860141;29;20189;-80
2022/10/14 11:31:40;;;;;;;3.05;1.90;;;17.20;99.90;;;;;;4859286;29;20224;-81
2022/10/14 11:34:32;;;;;;;2.78;2.13;;;17.30;99.90;;;;;;4858542;29;20224;-81
2022/10/14 11:37:41;;;;;;;2.90;2.60;;;17.30;99.90;;;;;;4859638;29;20287;-81
2022/10/14 11:40:22;;;;;;;6.88;3.00;;;17.40;99.90;;;;;;4858257;29;20185;-87
2022/10/14 11:43:00;;;;;;;4.43;2.22;;;17.40;99.90;;;;;;4843300;29;20231;-88
2022/10/14 11:45:56;;;;;;;3.55;1.60;;;17.50;99.90;;;;;;4861220;29;20192;-88
2022/10/14 11:48:41;;;;;;;4.72;1.90;;;17.60;99.90;;;;;;4858281;29;20220;-88
2022/10/14 11:51:19;;;;;;;2.88;1.80;;;17.70;99.90;;;;;;4857549;29;20192;-88
2022/10/14 11:53:51;;;;;;;2.15;1.90;;;17.90;99.90;;;;;;4850209;29;20204;-88
2022/10/14 11:56:34;;;;;;;3.70;1.73;;;18.00;99.90;;;;;;4862369;29;20279;-88
2022/10/14 11:59:19;;;;;;;2.45;1.95;;;18.10;99.90;;;;;;4877775;29;20252;-88
2022/10/14 12:01:50;;;;;;;2.10;1.80;;;18.10;99.90;;;;;;4862082;29;20204;-88
2022/10/14 12:04:29;;;;;;;3.08;1.65;;;18.20;99.90;;;;;;4851678;29;20218;-88
2022/10/14 12:07:02;;;;;;;1.95;1.58;;;18.10;99.90;;;;;;4861358;29;20184;-88
2022/10/14 12:09:37;;;;;;;3.97;1.77;;;18.00;99.90;;;;;;4861894;29;20213;-88
2022/10/14 12:12:10;;;;;;;2.95;1.65;;;17.90;99.90;;;;;;4861516;29;20200;-88
2022/10/14 12:14:54;;;;;;;2.22;1.70;;;17.80;99.90;;;;;;4861340;29;20212;-88
2022/10/14 12:17:51;;;;;;;3.13;1.80;;;17.70;99.90;;;;;;4846315;29;20173;-88
2022/10/14 12:20:35;;;;;;;2.50;1.88;;;17.70;99.90;;;;;;4861520;29;20201;-87
2022/10/14 12:23:06;;;;;;;2.05;1.77;;;17.70;99.90;;;;;;4859564;29;20207;-88
2022/10/14 12:26:05;;;;;;;2.03;1.67;;;17.70;99.90;;;;;;4857409;29;20187;-89
2022/10/14 12:28:36;;;;;;;2.10;1.85;;;17.70;99.90;;;;;;4841204;29;20192;-89
2022/10/14 12:31:27;;;;;;;7.45;3.72;;;17.60;99.90;;;;;;4850130;29;20287;-89
2022/10/14 12:34:13;;;;;;;2.08;1.55;;;17.60;99.90;;;;;;4854344;29;20304;-88
2022/10/14 12:36:56;;;;;;;1.65;1.30;;;17.50;99.90;;;;;;4861159;29;20204;-88
2022/10/14 12:39:33;;;;;;;2.15;1.65;;;17.50;99.90;;;;;;4862306;29;20192;-88
2022/10/14 12:42:12;;;;;;;1.60;1.50;;;17.50;99.90;;;;;;4860911;29;20200;-88
2022/10/14 12:44:48;;;;;;;1.73;1.23;;;17.40;99.90;;;;;;4861764;29;20244;-88
2022/10/14 12:47:35;;;;;;;2.47;1.52;;;17.50;99.90;;;;;;4860782;29;20188;-88
2022/10/14 12:50:04;;;;;;;1.52;1.30;;;17.40;99.90;;;;;;4846290;29;20195;-88
2022/10/14 12:52:38;;;;;;;1.33;0.98;;;17.40;99.90;;;;;;4861399;29;20232;-88
2022/10/14 12:55:32;;;;;;;2.95;1.30;;;17.30;99.90;;;;;;4860373;29;20215;-88
2022/10/14 12:58:01;;;;;;;1.60;1.50;;;17.40;99.90;;;;;;4860858;29;20177;-88
2022/10/14 13:00:42;;;;;;;3.67;1.70;;;17.40;99.90;;;;;;4861030;29;20313;-88
2022/10/14 13:03:20;;;;;;;1.48;1.38;;;17.50;99.90;;;;;;4859977;29;20205;-88
2022/10/14 13:05:47;;;;;;;1.83;1.60;;;17.50;99.90;;;;;;4861046;29;20210;-88
2022/10/14 13:08:19;;;;;;;1.95;1.30;;;17.50;99.90;;;;;;4860556;29;20185;-88
2022/10/14 13:10:49;;;;;;;2.05;1.67;;;17.50;99.90;;;;;;4861022;29;20181;-88
2022/10/14 13:13:40;;;;;;;2.85;2.65;;;17.50;99.90;;;;;;4860316;29;20205;-88
2022/10/14 13:16:29;;;;;;;1.02;1.00;;;17.50;99.90;;;;;;4842054;29;20189;-88
2022/10/14 13:19:03;;;;;;;2.05;1.40;;;17.40;99.90;;;;;;4841364;29;20224;-88
2022/10/14 13:21:35;;;;;;;2.60;1.20;;;17.40;99.90;;;;;;4841836;29;20750;-89
2022/10/14 13:24:27;;;;;;;3.22;2.00;;;17.40;99.90;;;;;;4844046;29;20317;-88
2022/10/14 13:26:53;;;;;;;4.07;1.75;;;17.30;99.90;;;;;;4860083;29;20237;-89